Time;durP1;ratioP1;P1;durP2;ratioP2;P2;SDS_P1;SDS_P2;PMS_P1;PMS_P2;Temp;Humidity;BMP_temperature;BMP_pressure;BME280_temperature;BME280_humidity;BME280_pressure;Samples;Min_cycle;Max_cycle;Signal;HPM_P1;HPM_P2
2024/03/14 00:00:17;;;;;;;15.90;13.15;;;;;;;11.23;100.00;137651.25;5061761;28;20076;-72
2024/03/14 00:02:45;;;;;;;13.63;11.85;;;;;;;10.83;100.00;137576.97;5070795;28;20031;-70
2024/03/14 00:05:11;;;;;;;12.52;10.93;;;;;;;11.20;100.00;137654.59;5072211;28;20410;-72
2024/03/14 00:07:36;;;;;;;11.57;9.60;;;;;;;10.44;100.00;137535.59;5071925;28;20041;-72
2024/03/14 00:10:04;;;;;;;11.02;9.52;;;;;;;11.15;100.00;137667.34;5072065;28;20111;-72
2024/03/14 00:12:30;;;;;;;10.68;9.45;;;;;;;10.77;100.00;137574.59;5070422;28;20025;-73
2024/03/14 00:14:55;;;;;;;11.80;9.77;;;;;;;11.13;100.00;137660.16;5070935;28;20085;-71
2024/03/14 00:17:21;;;;;;;13.55;10.30;;;;;;;11.24;100.00;137653.53;5071469;28;20043;-73
2024/03/14 00:19:46;;;;;;;16.20;9.95;;;;;;;11.29;100.00;137647.03;5061332;28;20866;-73
2024/03/14 00:22:12;;;;;;;16.23;11.02;;;;;;;10.83;100.00;137561.56;5071353;28;20101;-72
2024/03/14 00:24:38;;;;;;;15.70;11.77;;;;;;;10.92;100.00;137644.00;5071505;28;20031;-72
2024/03/14 00:27:04;;;;;;;16.65;12.98;;;;;;;11.12;100.00;137638.69;5063064;28;20414;-72
2024/03/14 00:29:33;;;;;;;22.65;16.63;;;;;;;11.18;100.00;137657.69;5071706;28;20078;-72
2024/03/14 00:31:59;;;;;;;24.50;19.80;;;;;;;10.80;100.00;137586.63;5070899;28;20501;-72
2024/03/14 00:34:26;;;;;;;17.40;14.05;;;;;;;11.24;100.00;137537.78;5069893;28;20029;-72
2024/03/14 00:36:53;;;;;;;13.13;11.40;;;;;;;10.88;100.00;137607.66;5071562;28;20479;-71
2024/03/14 00:39:18;;;;;;;11.80;10.18;;;;;;;10.90;100.00;137617.41;5072264;28;20039;-72
2024/03/14 00:41:44;;;;;;;11.73;8.85;;;;;;;10.68;100.00;137507.53;5053263;28;20437;-72
2024/03/14 00:44:09;;;;;;;10.07;8.70;;;;;;;10.67;100.00;137493.81;5072037;28;20032;-73
2024/03/14 00:46:35;;;;;;;10.68;9.35;;;;;;;11.16;100.00;137591.34;5070385;28;20063;-72
2024/03/14 00:49:00;;;;;;;12.15;10.20;;;;;;;11.13;100.00;137572.72;5070875;28;20032;-72
2024/03/14 00:51:25;;;;;;;12.40;11.10;;;;;;;10.51;100.00;137494.06;5071442;28;20024;-71
2024/03/14 00:53:51;;;;;;;13.10;10.52;;;;;;;10.22;100.00;137364.16;5070895;28;20032;-72
2024/03/14 00:56:17;;;;;;;12.32;10.50;;;;;;;11.18;100.00;137576.56;5052631;28;20078;-71
2024/03/14 00:58:42;;;;;;;12.38;10.82;;;;;;;11.06;100.00;137542.59;5071163;28;20037;-71
2024/03/14 01:01:08;;;;;;;12.23;10.82;;;;;;;11.08;100.00;137594.63;5070534;28;20446;-72
2024/03/14 01:03:35;;;;;;;13.27;11.68;;;;;;;10.45;100.00;137454.56;5062037;28;20035;-74
2024/03/14 01:06:01;;;;;;;14.65;12.13;;;;;;;10.70;100.00;137437.63;5071238;28;20084;-71
2024/03/14 01:08:27;;;;;;;15.10;12.85;;;;;;;10.82;100.00;137459.00;5052475;28;20093;-72
2024/03/14 01:10:52;;;;;;;13.70;12.07;;;;;;;11.00;100.00;137505.63;5068104;28;20174;-71
2024/03/14 01:13:19;;;;;;;13.90;11.70;;;;;;;10.99;100.00;137478.75;5070991;28;20054;-72
2024/03/14 01:15:44;;;;;;;13.70;11.70;;;;;;;10.63;100.00;137397.25;5070768;28;20467;-72
2024/03/14 01:18:10;;;;;;;13.68;11.73;;;;;;;10.95;100.00;137517.25;5070932;28;20119;-73
2024/03/14 01:20:38;;;;;;;13.80;12.07;;;;;;;10.81;100.00;137400.16;5070740;28;20028;-72
2024/03/14 01:23:07;;;;;;;13.70;12.15;;;;;;;11.05;100.00;137524.88;5071098;28;20052;-71
2024/03/14 01:25:34;;;;;;;14.88;12.32;;;;;;;11.19;100.00;137428.56;5052641;28;20050;-72
2024/03/14 01:27:59;;;;;;;13.38;11.98;;;;;;;11.21;100.00;137511.44;5070988;28;20060;-71
2024/03/14 01:30:25;;;;;;;14.27;12.27;;;;;;;10.99;100.00;137471.03;5068022;28;20075;-72
2024/03/14 01:32:50;;;;;;;14.18;12.68;;;;;;;11.26;100.00;137514.09;5070230;28;20040;-71
2024/03/14 01:35:16;;;;;;;14.93;12.63;;;;;;;10.92;100.00;137402.34;5068321;28;20055;-71
2024/03/14 01:37:42;;;;;;;16.67;13.90;;;;;;;10.97;100.00;137455.00;5051859;28;20029;-71
2024/03/14 01:40:12;;;;;;;16.20;13.40;;;;;;;10.60;100.00;137358.06;5069966;28;20032;-71
2024/03/14 01:42:40;;;;;;;18.88;13.05;;;;;;;11.20;100.00;137490.00;5051977;28;20032;-72
2024/03/14 01:45:09;;;;;;;14.95;12.50;;;;;;;10.78;100.00;137375.25;5070380;28;20059;-72
2024/03/14 01:47:35;;;;;;;14.70;11.98;;;;;;;10.24;100.00;137363.63;5070251;28;20052;-72
2024/03/14 01:50:05;;;;;;;11.10;9.93;;;;;;;11.22;100.00;137481.72;5068657;28;20063;-72
2024/03/14 01:52:34;;;;;;;12.10;10.70;;;;;;;11.20;100.00;137465.44;5070668;28;20024;-74
2024/03/14 01:55:02;;;;;;;11.85;10.55;;;;;;;11.41;100.00;137422.59;5068653;28;20024;-75
2024/03/14 01:57:29;;;;;;;12.15;10.68;;;;;;;10.79;100.00;137400.69;5070157;28;20102;-73
2024/03/14 01:59:58;;;;;;;10.82;9.70;;;;;;;10.76;100.00;137364.09;5070443;28;20132;-72
2024/03/14 02:02:24;;;;;;;11.00;9.75;;;;;;;11.31;100.00;137465.03;5070455;28;20029;-72
2024/03/14 02:04:53;;;;;;;8.82;7.93;;;;;;;11.23;100.00;137484.06;5068615;28;20423;-72
2024/03/14 02:07:25;;;;;;;9.50;7.97;;;;;;;11.14;100.00;137468.44;5058822;28;20045;-71
2024/03/14 02:09:51;;;;;;;8.55;7.15;;;;;;;10.75;100.00;137368.34;5069472;28;20036;-74
2024/03/14 02:12:17;;;;;;;8.50;7.13;;;;;;;10.47;100.00;137351.28;5069544;28;20034;-71
2024/03/14 02:14:42;;;;;;;7.55;6.47;;;;;;;10.89;100.00;137452.00;5051719;28;20064;-73
2024/03/14 02:17:08;;;;;;;8.05;6.50;;;;;;;11.21;100.00;137538.59;5055853;28;20033;-72
2024/03/14 02:19:33;;;;;;;8.10;6.90;;;;;;;11.18;100.00;137536.81;5074264;28;20086;-73
2024/03/14 02:22:01;;;;;;;9.20;8.00;;;;;;;10.89;100.00;137416.03;5069825;28;20032;-72
2024/03/14 02:24:27;;;;;;;8.95;7.35;;;;;;;11.21;100.00;137546.31;5068965;28;20509;-72
2024/03/14 02:26:52;;;;;;;11.65;9.02;;;;;;;10.48;100.00;137373.00;5068469;28;20172;-72
2024/03/14 02:29:18;;;;;;;16.10;12.50;;;;;;;11.22;100.00;137432.88;5069241;28;20575;-71
2024/03/14 02:31:43;;;;;;;20.20;16.45;;;;;;;10.45;100.00;137367.22;5050784;28;20029;-72
2024/03/14 02:34:09;;;;;;;22.88;18.75;;;;;;;10.77;100.00;137408.94;5050420;28;20055;-72
2024/03/14 02:36:35;;;;;;;22.13;18.25;;;;;;;10.59;100.00;137331.50;5050584;28;20391;-72
2024/03/14 02:39:01;;;;;;;22.02;17.48;;;;;;;11.17;100.00;137416.22;5061734;28;20043;-72
2024/03/14 02:41:28;;;;;;;20.50;16.42;;;;;;;11.07;100.00;137400.91;5070459;28;20029;-71
2024/03/14 02:43:56;;;;;;;21.23;16.52;;;;;;;10.49;100.00;137278.81;5066933;28;20021;-71
2024/03/14 02:46:22;;;;;;;19.80;15.55;;;;;;;10.56;100.00;137304.06;5059282;28;20060;-71
2024/03/14 02:48:47;;;;;;;20.52;15.32;;;;;;;10.77;100.00;137368.97;5051869;28;20060;-71
2024/03/14 02:51:13;;;;;;;19.63;15.60;;;;;;;10.37;100.00;137288.31;5051148;28;20425;-71
2024/03/14 02:53:39;;;;;;;19.40;14.98;;;;;;;10.73;100.00;137411.16;5069014;28;20082;-72
2024/03/14 02:56:08;;;;;;;20.90;17.08;;;;;;;10.57;100.00;137279.25;5069065;28;20044;-71
2024/03/14 02:58:36;;;;;;;21.42;16.92;;;;;;;10.85;100.00;137455.63;5050352;28;20472;-71
2024/03/14 03:01:03;;;;;;;20.25;16.45;;;;;;;10.40;100.00;137309.44;5068757;28;20059;-71
2024/03/14 03:03:29;;;;;;;21.48;16.08;;;;;;;10.20;100.00;137337.91;5067348;28;20488;-72
2024/03/14 03:05:54;;;;;;;18.85;15.48;;;;;;;10.31;100.00;137288.75;5068799;28;20127;-70
2024/03/14 03:08:19;;;;;;;18.80;14.65;;;;;;;10.48;100.00;137425.47;5068101;28;20033;-72
2024/03/14 03:10:45;;;;;;;18.05;15.20;;;;;;;10.29;100.00;137364.91;5068800;28;20087;-71
2024/03/14 03:13:10;;;;;;;18.88;15.02;;;;;;;10.02;100.00;137332.34;5058835;28;20115;-71
2024/03/14 03:15:36;;;;;;;17.67;14.38;;;;;;;10.55;100.00;137394.22;5068688;28;20029;-71
2024/03/14 03:18:01;;;;;;;19.10;15.23;;;;;;;9.82;100.00;137390.06;5068852;28;20029;-71
2024/03/14 03:20:27;;;;;;;17.23;14.20;;;;;;;9.86;100.00;137342.81;5069819;28;20029;-74
2024/03/14 03:23:05;;;;;;;16.95;13.95;;;;;;;10.55;100.00;137521.28;5050970;28;20028;-72
2024/03/14 03:25:32;;;;;;;18.48;14.30;;;;;;;10.05;100.00;137563.72;5069893;28;20551;-73
2024/03/14 03:27:59;;;;;;;18.08;13.88;;;;;;;10.07;100.00;137455.38;5075203;28;20059;-71
2024/03/14 03:30:24;;;;;;;20.02;14.55;;;;;;;10.42;100.00;137561.78;5056738;28;20032;-72
2024/03/14 03:32:50;;;;;;;18.67;14.18;;;;;;;10.28;100.00;137533.53;5074791;28;20094;-73
2024/03/14 03:35:20;;;;;;;18.95;14.95;;;;;;;10.18;100.00;137488.47;5062068;28;20029;-74
2024/03/14 03:37:47;;;;;;;21.60;15.43;;;;;;;10.20;100.00;137552.13;5074502;28;20036;-72
2024/03/14 03:40:21;;;;;;;18.05;13.27;;;;;;;9.96;100.00;137640.50;5057184;28;20024;-71
2024/03/14 03:42:47;;;;;;;21.15;14.93;;;;;;;9.49;100.00;137456.19;5075719;28;20028;-74
2024/03/14 03:45:13;;;;;;;19.88;15.15;;;;;;;10.21;100.00;137564.72;5057666;28;20037;-74
2024/03/14 03:47:41;;;;;;;18.50;13.95;;;;;;;9.50;100.00;137426.56;5057073;28;20028;-75
2024/03/14 03:50:08;;;;;;;19.02;14.38;;;;;;;9.33;100.00;137496.19;5073273;28;20028;-71
2024/03/14 03:52:34;;;;;;;19.88;15.45;;;;;;;9.73;100.00;137500.13;5073602;28;20052;-71
2024/03/14 03:55:00;;;;;;;21.70;16.08;;;;;;;9.75;100.00;137506.16;5074772;28;20067;-72
2024/03/14 03:57:26;;;;;;;21.45;16.50;;;;;;;9.79;100.00;137425.56;5075748;28;20414;-74
2024/03/14 03:59:52;;;;;;;20.92;16.65;;;;;;;10.16;100.00;137559.75;5073537;28;20044;-73
2024/03/14 04:02:18;;;;;;;21.45;16.17;;;;;;;10.19;100.00;137578.09;5074926;28;20029;-73
2024/03/14 04:04:44;;;;;;;20.13;16.10;;;;;;;9.70;100.00;137512.59;5075397;28;20098;-71
2024/03/14 04:07:14;;;;;;;25.08;16.92;;;;;;;9.81;100.00;137433.91;5075294;28;20414;-72
2024/03/14 04:09:45;;;;;;;22.65;16.52;;;;;;;9.62;100.00;137482.47;5075360;28;20486;-72
2024/03/14 04:12:14;;;;;;;22.67;16.90;;;;;;;9.64;100.00;137443.47;5073260;28;20028;-71
2024/03/14 04:14:48;;;;;;;22.70;16.70;;;;;;;9.62;100.00;137418.34;5075479;28;20067;-71
2024/03/14 04:17:15;;;;;;;26.77;18.77;;;;;;;10.18;100.00;137573.19;5073314;28;20089;-71
2024/03/14 04:19:41;;;;;;;25.65;18.90;;;;;;;9.45;100.00;137322.72;5075033;28;20037;-71
2024/03/14 04:22:07;;;;;;;27.15;18.52;;;;;;;10.16;100.00;137552.06;5057122;28;20090;-72
2024/03/14 04:24:33;;;;;;;23.70;17.13;;;;;;;9.78;100.00;137460.38;5074593;28;20089;-71
2024/03/14 04:26:59;;;;;;;22.73;16.50;;;;;;;10.23;100.00;137619.53;5074189;28;20115;-73
2024/03/14 04:29:26;;;;;;;25.55;17.17;;;;;;;10.43;100.00;137517.88;5074070;28;20043;-70
2024/03/14 04:31:54;;;;;;;20.10;15.52;;;;;;;11.22;100.00;137528.03;5056498;28;20044;-73
2024/03/14 04:34:21;;;;;;;23.70;17.17;;;;;;;9.86;100.00;137535.28;5050847;28;20105;-73
2024/03/14 04:36:47;;;;;;;23.38;17.17;;;;;;;9.90;100.00;137562.47;5062037;28;20399;-73
2024/03/14 04:39:14;;;;;;;23.85;16.25;;;;;;;9.60;100.00;137471.31;5067578;28;20063;-71
2024/03/14 04:41:41;;;;;;;21.85;16.67;;;;;;;9.60;100.00;137430.28;5069942;28;20104;-69
2024/03/14 04:44:09;;;;;;;22.58;15.90;;;;;;;9.47;100.00;137540.16;5070177;28;20067;-70
2024/03/14 04:46:35;;;;;;;22.98;16.90;;;;;;;8.81;100.00;137495.50;5051290;28;20028;-69
2024/03/14 04:49:00;;;;;;;28.35;19.65;;;;;;;9.39;100.00;137544.78;5066981;28;20411;-72
2024/03/14 04:51:26;;;;;;;44.10;29.50;;;;;;;10.15;100.00;137683.22;5055012;28;20419;-71
2024/03/14 04:53:51;;;;;;;28.67;19.80;;;;;;;9.79;100.00;137490.88;5054668;28;20039;-73
2024/03/14 04:56:20;;;;;;;43.90;25.70;;;;;;;9.97;100.00;137688.97;5056735;28;20524;-72
2024/03/14 04:58:46;;;;;;;32.67;21.13;;;;;;;10.24;100.00;137609.03;5051197;28;20036;-70
2024/03/14 05:01:11;;;;;;;53.65;33.55;;;;;;;10.23;100.00;137625.84;5069352;28;20028;-69
2024/03/14 05:03:38;;;;;;;35.10;23.02;;;;;;;9.57;100.00;137509.41;5070968;28;20029;-69
2024/03/14 05:06:03;;;;;;;40.03;23.90;;;;;;;10.11;100.00;137625.22;5070407;28;20055;-69
2024/03/14 05:08:29;;;;;;;33.88;21.40;;;;;;;10.24;100.00;137602.44;5051319;28;20487;-69
2024/03/14 05:10:55;;;;;;;26.92;19.25;;;;;;;10.34;100.00;137650.03;5069734;28;20580;-69
2024/03/14 05:13:20;;;;;;;24.35;17.80;;;;;;;10.38;100.00;137698.97;5067729;28;21606;-70
2024/03/14 05:15:46;;;;;;;23.85;18.77;;;;;;;9.91;100.00;137641.75;5068882;28;20512;-76
2024/03/14 05:18:11;;;;;;;24.42;18.08;;;;;;;9.87;100.00;137556.94;5066949;28;20039;-70
2024/03/14 05:20:37;;;;;;;24.60;17.90;;;;;;;9.33;100.00;137598.75;5070322;28;20036;-71
2024/03/14 05:23:02;;;;;;;28.80;21.02;;;;;;;10.06;100.00;137657.28;5069742;28;20035;-71
2024/03/14 05:25:28;;;;;;;27.15;19.40;;;;;;;10.16;100.00;137553.16;5050661;28;20396;-71
2024/03/14 05:27:53;;;;;;;24.20;18.88;;;;;;;10.04;100.00;137512.59;5057716;28;20028;-77
2024/03/14 05:30:19;;;;;;;24.88;18.77;;;;;;;9.80;100.00;137520.28;5072686;28;20422;-73
2024/03/14 05:32:47;;;;;;;25.25;17.17;;;;;;;10.03;100.00;137636.09;5070117;28;20029;-73
2024/03/14 05:35:13;;;;;;;26.38;19.02;;;;;;;10.17;100.00;137680.16;5069310;28;20511;-70
2024/03/14 05:37:39;;;;;;;26.60;19.02;;;;;;;9.89;100.00;137508.81;5067503;28;20033;-72
2024/03/14 05:40:09;;;;;;;23.92;17.85;;;;;;;9.25;100.00;137463.81;5069218;28;20029;-68
2024/03/14 05:42:35;;;;;;;28.40;19.80;;;;;;;10.28;100.00;137642.50;5068670;28;20048;-70
2024/03/14 05:45:01;;;;;;;27.08;19.77;;;;;;;9.76;100.00;137555.81;5069398;28;20419;-69
2024/03/14 05:47:27;;;;;;;27.23;15.93;;;;;;;11.10;100.00;137457.81;5071182;28;20021;-72
2024/03/14 05:49:52;;;;;;;31.25;19.27;;;;;;;11.03;100.00;137639.66;5070557;28;20028;-72
2024/03/14 05:52:18;;;;;;;31.42;21.30;;;;;;;10.58;100.00;137611.84;5070837;28;20025;-71
2024/03/14 05:54:44;;;;;;;25.42;18.50;;;;;;;10.76;100.00;137577.41;5070044;28;20063;-77
2024/03/14 05:57:09;;;;;;;30.92;22.50;;;;;;;9.83;100.00;137434.81;5050570;28;20045;-71
2024/03/14 05:59:36;;;;;;;29.98;21.63;;;;;;;10.17;100.00;137740.38;5050430;28;20442;-70
2024/03/14 06:02:02;;;;;;;29.30;21.00;;;;;;;10.51;100.00;137590.53;5051837;28;20146;-70
2024/03/14 06:04:27;;;;;;;28.50;20.38;;;;;;;9.97;100.00;137576.03;5069670;28;20107;-74
2024/03/14 06:06:53;;;;;;;24.92;17.70;;;;;;;9.97;100.00;137533.81;5069566;28;20491;-73
2024/03/14 06:09:31;;;;;;;27.83;20.50;;;;;;;10.18;100.00;137583.47;5056993;28;20667;-72
2024/03/14 06:11:57;;;;;;;28.50;21.30;;;;;;;9.95;100.00;137597.09;5070058;28;20039;-71
2024/03/14 06:14:23;;;;;;;31.58;22.38;;;;;;;10.51;100.00;137680.44;5050307;28;20036;-71
2024/03/14 06:16:49;;;;;;;32.78;21.63;;;;;;;10.60;100.00;137681.81;5050390;28;20107;-71
2024/03/14 06:19:15;;;;;;;29.15;20.33;;;;;;;10.66;100.00;137686.78;5066914;28;20110;-71
2024/03/14 06:21:40;;;;;;;29.02;19.35;;;;;;;10.61;100.00;137623.88;5069119;28;20052;-71
2024/03/14 06:24:06;;;;;;;26.70;19.15;;;;;;;10.29;100.00;137548.66;5068557;28;20032;-71
2024/03/14 06:26:31;;;;;;;29.17;21.80;;;;;;;10.82;100.00;137696.63;5069940;28;20055;-71
2024/03/14 06:28:57;;;;;;;29.17;20.85;;;;;;;10.77;100.00;137736.50;5072220;28;20036;-73
2024/03/14 06:31:22;;;;;;;33.53;23.83;;;;;;;10.66;100.00;137753.59;5051648;28;20031;-70
2024/03/14 06:33:50;;;;;;;36.85;24.05;;;;;;;10.74;100.00;137709.00;5050847;28;20119;-73
2024/03/14 06:36:17;;;;;;;31.10;23.38;;;;;;;10.83;100.00;137654.09;5068711;28;20025;-72
2024/03/14 06:38:43;;;;;;;29.48;20.70;;;;;;;11.00;100.00;137730.47;5069058;28;20040;-72
2024/03/14 06:41:08;;;;;;;29.77;21.48;;;;;;;11.08;100.00;137671.78;5056128;28;20415;-71
2024/03/14 06:43:33;;;;;;;25.23;18.65;;;;;;;11.06;100.00;137739.16;5068639;28;20418;-71
2024/03/14 06:45:59;;;;;;;24.23;19.58;;;;;;;10.95;100.00;137702.34;5068534;28;20107;-75
2024/03/14 06:48:24;;;;;;;26.35;19.30;;;;;;;10.86;100.00;137767.53;5050367;28;20418;-71
2024/03/14 06:50:50;;;;;;;27.75;20.30;;;;;;;11.01;100.00;137695.63;5068353;28;20032;-71
2024/03/14 06:53:16;;;;;;;24.83;19.85;;;;;;;10.41;100.00;137616.03;5068374;28;20027;-71
2024/03/14 06:55:42;;;;;;;32.50;21.98;;;;;;;10.95;100.00;137710.06;5050080;28;20048;-74
2024/03/14 06:58:08;;;;;;;33.13;22.20;;;;;;;10.32;100.00;137701.94;5069239;28;20028;-71
2024/03/14 07:00:34;;;;;;;40.05;27.13;;;;;;;10.75;100.00;137617.63;5049320;28;20094;-71
2024/03/14 07:03:02;;;;;;;36.83;26.23;;;;;;;11.17;100.00;137707.97;5070050;28;20024;-75
2024/03/14 07:05:28;;;;;;;34.60;23.45;;;;;;;11.09;100.00;137720.34;5068410;28;20028;-71
2024/03/14 07:07:54;;;;;;;37.40;27.65;;;;;;;10.50;100.00;137606.22;5068473;28;20021;-71
2024/03/14 07:10:21;;;;;;;37.88;28.40;;;;;;;11.21;100.00;137757.22;5068869;28;20032;-72
2024/03/14 07:12:47;;;;;;;35.63;25.17;;;;;;;10.70;100.00;137675.47;5065730;28;20029;-71
2024/03/14 07:15:13;;;;;;;34.15;24.63;;;;;;;10.84;100.00;137703.81;5068494;28;20108;-71
2024/03/14 07:17:40;;;;;;;37.50;26.48;;;;;;;10.69;100.00;137671.78;5066335;28;20025;-71
2024/03/14 07:20:09;;;;;;;35.55;24.60;;;;;;;10.41;100.00;137659.69;5049574;28;20036;-71
2024/03/14 07:22:39;;;;;;;32.47;24.98;;;;;;;11.06;100.00;137725.16;5068440;28;20457;-72
2024/03/14 07:25:08;;;;;;;28.33;21.85;;;;;;;11.19;100.00;137850.34;5066672;28;20418;-72
2024/03/14 07:27:34;;;;;;;32.10;24.52;;;;;;;11.13;100.00;137779.91;5066310;28;20038;-72
2024/03/14 07:30:00;;;;;;;30.35;23.25;;;;;;;11.17;100.00;137742.84;5068841;28;20135;-72
2024/03/14 07:32:26;;;;;;;29.73;21.85;;;;;;;11.00;100.00;137711.28;5058773;28;20020;-71
2024/03/14 07:34:52;;;;;;;29.42;21.42;;;;;;;11.16;100.00;137679.94;5065104;28;20041;-71
2024/03/14 07:37:23;;;;;;;29.77;21.65;;;;;;;10.61;100.00;137623.88;5068150;28;20036;-71
2024/03/14 07:39:49;;;;;;;34.08;23.17;;;;;;;10.90;100.00;137798.75;5068719;28;20040;-71
2024/03/14 07:42:14;;;;;;;31.90;23.25;;;;;;;11.13;100.00;137680.72;5067068;28;20036;-71
2024/03/14 07:44:45;;;;;;;30.48;22.90;;;;;;;10.92;100.00;137619.44;5067572;28;20017;-70
2024/03/14 07:47:19;;;;;;;30.95;22.85;;;;;;;11.07;100.00;137628.31;5068435;28;20025;-71
2024/03/14 07:49:48;;;;;;;30.65;22.33;;;;;;;11.55;100.00;137829.41;5064083;28;20059;-71
2024/03/14 07:52:15;;;;;;;29.92;22.83;;;;;;;11.43;100.00;137757.97;5068280;28;20031;-71
2024/03/14 07:54:44;;;;;;;27.67;21.02;;;;;;;10.77;100.00;137627.38;5068390;28;20027;-72
2024/03/14 07:57:14;;;;;;;32.20;22.17;;;;;;;11.39;100.00;137720.44;5068378;28;20044;-71
2024/03/14 07:59:41;;;;;;;25.83;19.65;;;;;;;10.89;100.00;137878.72;5066410;28;20035;-70
2024/03/14 08:02:12;;;;;;;25.95;19.30;;;;;;;10.98;100.00;137669.28;5068135;28;20098;-70
2024/03/14 08:04:45;;;;;;;39.60;27.52;;;;;;;11.11;100.00;137712.13;5049424;28;20108;-70
2024/03/14 08:07:13;;;;;;;28.88;21.38;;;;;;;11.32;100.00;137762.03;5068483;28;20931;-70
2024/03/14 08:09:39;;;;;;;27.67;19.90;;;;;;;11.68;100.00;137728.19;5066501;28;20032;-70
2024/03/14 08:12:06;;;;;;;23.67;19.40;;;;;;;11.80;100.00;137759.63;5068229;28;20111;-72
2024/03/14 08:14:33;;;;;;;26.63;20.10;;;;;;;11.21;100.00;137680.06;5072276;28;20024;-71
2024/03/14 08:17:00;;;;;;;25.98;19.10;;;;;;;11.72;100.00;137653.63;5076559;28;20037;-71
2024/03/14 08:19:28;;;;;;;23.88;18.17;;;;;;;11.63;100.00;137747.47;5071383;28;20036;-71
2024/03/14 08:21:56;;;;;;;29.25;21.50;;;;;;;12.00;100.00;137743.91;5071434;28;20035;-72
2024/03/14 08:24:26;;;;;;;41.10;27.52;;;;;;;11.46;100.00;137687.69;5071679;28;20027;-73
2024/03/14 08:26:52;;;;;;;27.88;21.35;;;;;;;11.96;100.00;137697.50;5071527;28;20033;-71
2024/03/14 08:29:17;;;;;;;25.80;19.33;;;;;;;11.81;100.00;137761.91;5071462;28;20035;-76
2024/03/14 08:31:43;;;;;;;24.88;18.55;;;;;;;10.64;100.00;137633.34;5052620;28;20036;-70
2024/03/14 08:34:09;;;;;;;24.73;19.55;;;;;;;10.95;100.00;137702.34;5071465;28;20039;-71
2024/03/14 08:36:40;;;;;;;27.90;22.35;;;;;;;11.56;100.00;137798.25;5071475;28;20032;-71
2024/03/14 08:39:06;;;;;;;25.25;19.80;;;;;;;11.39;100.00;137870.78;5071410;28;20103;-71
2024/03/14 08:41:32;;;;;;;29.90;22.00;;;;;;;11.18;100.00;137675.69;5071428;28;20040;-71
2024/03/14 08:43:58;;;;;;;27.95;20.92;;;;;;;11.12;100.00;137664.41;5070457;28;20029;-74
2024/03/14 08:46:23;;;;;;;27.13;20.77;;;;;;;11.79;100.00;137839.66;5071435;28;20024;-70
2024/03/14 08:48:49;;;;;;;37.47;27.92;;;;;;;11.68;100.00;137635.53;5069468;28;20072;-70
2024/03/14 08:51:14;;;;;;;26.63;20.83;;;;;;;11.89;100.00;137764.91;5052624;28;20395;-70
2024/03/14 08:54:08;;;;;;;25.85;18.73;;;;;;;11.20;100.00;137693.16;5070634;28;20501;-75
2024/03/14 08:56:31;;;;;;;26.73;20.80;;;;;;;11.88;100.00;137922.28;5070141;28;20048;-70
2024/03/14 08:58:59;;;;;;;28.35;21.83;;;;;;;12.46;100.00;137730.34;5061557;28;20051;-70
2024/03/14 09:01:24;;;;;;;21.25;17.17;;;;;;;12.60;100.00;137766.59;5071192;28;20024;-70
2024/03/14 09:03:51;;;;;;;34.30;20.58;;;;;;;11.53;100.00;137741.00;5071249;28;20024;-70
2024/03/14 09:06:16;;;;;;;44.08;24.95;;;;;;;11.58;100.00;137567.25;5069127;28;20028;-70
2024/03/14 09:08:43;;;;;;;20.02;16.88;;;;;;;12.02;100.00;137720.19;5070759;28;20051;-70
2024/03/14 09:11:09;;;;;;;22.90;18.58;;;;;;;11.93;100.00;137745.81;5070530;28;20024;-74
2024/03/14 09:13:35;;;;;;;21.33;16.60;;;;;;;12.12;100.00;137858.06;5070648;28;20186;-70
2024/03/14 09:16:00;;;;;;;24.35;18.27;;;;;;;12.20;100.00;137758.03;5070548;28;20036;-69
2024/03/14 09:18:26;;;;;;;22.63;18.30;;;;;;;11.73;100.00;137778.31;5052417;28;20508;-70
2024/03/14 09:20:55;;;;;;;20.23;16.92;;;;;;;12.31;100.00;137764.16;5069748;28;20498;-75
2024/03/14 09:23:25;;;;;;;20.45;16.33;;;;;;;11.86;100.00;138010.34;5069853;28;20028;-71
2024/03/14 09:25:55;;;;;;;19.92;16.30;;;;;;;-140.33;100.00;61596.09;5070223;28;20094;-70
2024/03/14 09:28:21;;;;;;;17.75;14.63;;;;;;;11.77;100.00;138232.94;5051923;28;20025;-71
2024/03/14 09:30:46;;;;;;;20.15;17.38;;;;;;;12.60;100.00;137814.16;5070095;28;20093;-72
2024/03/14 09:33:12;;;;;;;19.20;15.82;;;;;;;-140.33;100.00;61596.09;5061838;28;20060;-70
2024/03/14 09:35:44;;;;;;;27.13;22.55;;;;;;;-140.33;100.00;61596.09;5069716;28;20037;-70
2024/03/14 09:38:11;;;;;;;17.95;14.75;;;;;;;-140.33;100.00;61596.09;5068371;28;20415;-75
2024/03/14 09:40:39;;;;;;;17.10;15.07;;;;;;;-140.33;100.00;61596.09;5067821;28;20036;-70
2024/03/14 09:43:13;;;;;;;16.75;14.85;;;;;;;-140.33;100.00;61596.09;5062478;28;20198;-70
2024/03/14 09:45:40;;;;;;;14.05;12.43;;;;;;;-140.33;100.00;61596.09;5069996;28;20052;-72
2024/03/14 09:48:07;;;;;;;15.98;13.27;;;;;;;-140.33;100.00;61596.09;5057718;28;20029;-71
2024/03/14 09:50:35;;;;;;;14.32;12.75;;;;;;;-140.33;100.00;61596.09;5069360;28;20041;-71
2024/03/14 09:53:03;;;;;;;13.05;11.60;;;;;;;-140.33;100.00;61596.09;5068135;28;20032;-71
2024/03/14 09:55:30;;;;;;;16.08;12.85;;;;;;;-140.33;100.00;61596.09;5069854;28;20814;-71
2024/03/14 09:57:59;;;;;;;14.25;12.13;;;;;;;12.89;100.00;138947.88;5068498;28;20446;-71
2024/03/14 10:00:26;;;;;;;12.95;11.48;;;;;;;13.11;100.00;137461.19;5051443;28;20039;-74
2024/03/14 10:02:55;;;;;;;18.50;15.90;;;;;;;13.27;100.00;137569.06;5069761;28;20029;-70
2024/03/14 10:05:22;;;;;;;10.00;8.88;;;;;;;12.62;100.00;137918.16;5069861;28;20029;-71
2024/03/14 10:07:49;;;;;;;10.50;8.25;;;;;;;13.37;100.00;137959.72;5065292;28;20039;-70
2024/03/14 10:10:15;;;;;;;8.38;7.15;;;;;;;13.51;100.00;138043.69;5069533;28;20730;-71
2024/03/14 10:12:52;;;;;;;10.02;8.23;;;;;;;12.76;100.00;138084.56;5069250;28;20036;-71
2024/03/14 10:15:20;;;;;;;9.90;8.85;;;;;;;13.52;100.00;138235.91;5069345;28;20044;-71
2024/03/14 10:17:47;;;;;;;10.93;9.15;;;;;;;13.23;100.00;138158.56;5069421;28;20028;-71
2024/03/14 10:20:14;;;;;;;11.75;9.60;;;;;;;13.83;100.00;138295.84;4740430;28;10001034;-71
2024/03/14 10:22:40;;;;;;;13.73;10.40;;;;;;;13.78;100.00;138418.63;5047446;28;20245;-71
2024/03/14 10:25:12;;;;;;;11.00;9.77;;;;;;;13.69;100.00;138492.19;5066465;28;20038;-70
2024/03/14 10:27:41;;;;;;;13.57;10.25;;;;;;;13.57;100.00;138336.44;5049631;28;20426;-72
2024/03/14 10:30:08;;;;;;;11.75;10.35;;;;;;;13.97;100.00;138579.13;5067369;28;20141;-72
2024/03/14 10:32:34;;;;;;;12.43;11.13;;;;;;;13.69;100.00;138607.00;5065751;28;20084;-70
2024/03/14 10:35:01;;;;;;;13.80;11.85;;;;;;;13.16;100.00;138661.09;5066927;28;20058;-74
2024/03/14 10:37:30;;;;;;;12.65;11.35;;;;;;;12.94;100.00;138727.28;5060654;28;20036;-70
2024/03/14 10:39:59;;;;;;;13.48;10.70;;;;;;;12.88;100.00;138664.34;5071610;28;20036;-69
2024/03/14 10:42:28;;;;;;;10.23;9.13;;;;;;;12.50;100.00;138583.94;5066626;28;20033;-74
2024/03/14 10:44:54;;;;;;;12.45;10.20;;;;;;;13.12;100.00;138473.75;5064763;28;20048;-70
2024/03/14 10:47:21;;;;;;;13.60;10.88;;;;;;;13.51;100.00;138740.88;5064583;28;20029;-71
2024/03/14 10:49:47;;;;;;;11.45;10.25;;;;;;;13.63;100.00;138760.97;5047666;28;20020;-75
2024/03/14 10:52:15;;;;;;;9.80;8.70;;;;;;;13.33;100.00;138638.59;5068710;28;20506;-72
2024/03/14 10:54:46;;;;;;;10.20;8.63;;;;;;;13.63;100.00;138886.38;5066128;28;20033;-73
2024/03/14 10:57:18;;;;;;;14.67;8.13;;;;;;;14.26;100.00;138792.28;5063959;28;20048;-74
2024/03/14 10:59:44;;;;;;;7.18;6.15;;;;;;;13.20;100.00;138670.38;5066182;28;20322;-69
2024/03/14 11:02:15;;;;;;;6.88;6.07;;;;;;;13.68;100.00;138832.03;5066891;28;20043;-71